Latest Weather Observations for Strathalbyn

IDS60801

Issued at 2:31 pm CDT Monday 5 December 2016 (issued every 30 minutes, with the page automatically refreshed every 10 minutes)

About weather observations | Map of weather stations | Latest weather observations for SA | Other Formats
Station Details ID: 024580 Name: STRATHALBYN RACECOURSE Lat: -35.28 Lon: 138.89 Height: 58.0 m
Data from the previous 72 hours. | See also: Recent months at Strathalbyn
Date/Time
CDT
Temp
°C
App
Temp
°C
Dew
Point
°C
Rel
Hum
%
Delta-T
°C
Wind Press
QNH
hPa
Press
MSL
hPa
Rain since
9am
mm
Dir  Spd
km/h
Gust
km/h
Spd
kts
Gust
kts
05/02:30pm 19.8 16.5 6.2 41 6.8 S 13 9 7 5 1014.3 1014.2 -
05/02:00pm 19.4 17.5 6.5 43 6.5 WSW 6 17 3 9 1014.4 1014.3 0.0
05/01:30pm 19.0 15.8 6.8 45 6.1 S 13 24 7 13 1014.3 1014.2 0.0
05/01:00pm 18.8 14.9 6.9 46 6.0 SSW 17 30 9 16 1014.5 1014.4 0.0
05/12:30pm 18.5 13.7 7.3 48 5.7 S 22 32 12 17 1014.3 1014.2 0.0
05/12:00pm 18.2 13.8 6.7 47 5.7 S 19 32 10 17 1014.3 1014.2 0.0
05/11:30am 17.7 13.6 7.7 52 5.1 S 19 28 10 15 1014.6 1014.5 0.0
05/11:00am 17.9 13.2 7.6 51 5.2 SSW 22 37 12 20 1015.2 1015.1 0.0
05/10:30am 18.1 13.5 6.6 47 5.7 SSW 20 30 11 16 1014.9 1014.8 0.0
05/10:00am 17.4 13.5 7.2 51 5.1 SW 17 26 9 14 1014.9 1014.8 0.0
05/09:30am 17.4 13.3 8.0 54 4.8 SSW 19 28 10 15 1014.4 1014.3 0.0
05/09:00am 17.2 12.0 7.3 52 5.0 S 24 32 13 17 1014.3 1014.2 0.0
05/08:30am 16.3 11.8 8.5 60 4.0 SSW 22 28 12 15 1013.8 1013.7 0.0
05/08:00am 16.2 12.2 8.9 62 3.8 SSW 20 28 11 15 1013.8 1013.7 0.0
05/07:30am 15.6 13.4 9.3 66 3.3 SW 11 15 6 8 1013.6 1013.5 0.0
05/07:00am 15.0 12.6 8.7 66 3.2 SW 11 19 6 10 1013.0 1012.9 0.0
05/06:30am 14.6 12.2 8.8 68 2.9 SW 11 15 6 8 1012.9 1012.8 0.0
05/06:00am 14.1 12.2 8.9 71 2.6 WSW 9 15 5 8 1012.4 1012.3 0.0
05/05:30am 13.0 11.1 8.9 76 2.1 SW 9 19 5 10 1011.7 1011.5 0.0
05/05:00am 13.0 9.8 8.5 74 2.2 SW 15 20 8 11 1011.7 1011.5 0.0
05/04:30am 13.4 10.4 9.3 76 2.1 WSW 15 22 8 12 1011.3 1011.1 0.0
05/04:00am 13.2 9.9 9.5 78 1.9 WSW 17 22 9 12 1011.0 1010.8 0.0
05/03:30am 13.4 10.5 9.6 78 2.0 WSW 15 20 8 11 1010.6 1010.4 0.0
05/03:00am 13.5 10.2 9.7 78 2.0 WSW 17 24 9 13 1010.4 1010.2 0.0
05/02:30am 13.7 11.6 9.9 78 2.0 SW 11 17 6 9 1010.5 1010.3 0.0
05/02:00am 14.0 12.5 10.4 79 1.9 SW 9 17 5 9 1010.7 1010.5 0.0
05/01:30am 15.0 12.1 11.0 77 2.1 WSW 17 26 9 14 1010.4 1010.2 0.0
05/01:00am 15.0 12.0 10.8 76 2.2 SW 17 22 9 12 1010.2 1010.0 0.0
05/12:30am 15.8 13.0 11.4 75 2.4 SW 17 24 9 13 1009.8 1009.6 0.0
05/12:00am 17.1 14.1 12.6 75 2.5 SW 20 28 11 15 1009.4 1009.2 0.0
 
Date/Time
CDT
Temp
°C
App
Temp
°C
Dew
Point
°C
Rel
Hum
%
Delta-T
°C
Wind Press
QNH
hPa
Press
MSL
hPa
Rain since
9am
mm
Dir  Spd
km/h
Gust
km/h
Spd
kts
Gust
kts
04/11:30pm 17.8 15.0 13.1 74 2.7 SSW 20 28 11 15 1009.1 1008.9 0.0
04/11:00pm 18.0 13.9 13.9 77 2.3 SSW 28 35 15 19 1008.3 1008.1 0.0
04/10:30pm 19.6 18.6 14.6 73 2.9 SW 13 19 7 10 1007.9 1007.7 0.0
04/10:00pm 20.8 18.5 14.7 68 3.6 W 20 30 11 16 1007.0 1006.8 0.0
04/09:30pm 22.1 21.7 14.0 60 4.7 W 9 13 5 7 1006.4 1006.2 0.0
04/09:00pm 22.7 21.8 14.8 61 4.7 WNW 13 20 7 11 1005.9 1005.7 0.0
04/08:33pm 23.4 18.9 14.9 59 5.1 W 32 50 17 27 1005.5 1005.3 0.0
04/08:30pm 23.6 18.5 14.9 58 5.2 W 35 50 19 27 1005.4 1005.2 0.0
04/08:18pm 26.7 24.2 15.1 49 7.0 WNW 22 48 12 26 1004.5 1004.3 0.0
04/08:17pm 27.2 25.1 15.2 47 7.3 WNW 20 44 11 24 1004.5 1004.3 0.0
04/08:00pm 28.3 26.8 15.2 44 8.0 NNW 17 24 9 13 1003.7 1003.5 0.0
04/07:30pm 28.6 26.5 15.2 44 8.2 NNW 20 30 11 16 1003.3 1003.1 0.0
04/07:00pm 29.1 26.1 14.9 42 8.7 NNW 24 39 13 21 1003.0 1002.8 0.0
04/06:30pm 30.1 26.9 15.4 41 9.1 NNW 26 37 14 20 1002.4 1002.2 0.0
04/06:00pm 28.8 26.5 15.7 45 8.1 N 22 33 12 18 1002.3 1002.1 0.0
04/05:30pm 28.7 26.5 15.9 45 7.9 N 22 32 12 17 1002.3 1002.1 0.0
04/05:00pm 28.5 25.6 15.1 44 8.2 N 24 33 13 18 1002.7 1002.5 0.0
04/04:30pm 28.4 25.6 15.3 45 8.0 N 24 35 13 19 1002.9 1002.7 0.0
04/04:00pm 28.1 25.6 16.1 48 7.4 N 24 43 13 23 1003.0 1002.8 0.0
04/03:30pm 27.3 25.1 16.0 50 7.0 N 22 30 12 16 1003.5 1003.3 0.0
04/03:00pm 24.3 23.6 17.3 65 4.4 N 17 22 9 12 1004.3 1004.1 0.0
04/02:30pm 26.5 24.9 16.4 53 6.3 N 20 33 11 18 1005.5 1005.3 0.0
04/02:00pm 26.1 24.7 16.9 57 5.7 N 20 28 11 15 1005.7 1005.5 0.0
04/01:30pm 24.3 23.0 17.3 65 4.4 NNW 20 28 11 15 1006.9 1006.7 0.0
04/01:02pm 24.3 21.5 17.3 65 4.4 NNW 28 46 15 25 1007.4 1007.2 0.0
04/01:00pm 24.3 22.1 17.8 67 4.1 NNW 26 46 14 25 1007.5 1007.3 0.0
04/12:30pm 23.7 21.3 17.4 68 3.9 NNW 26 39 14 21 1007.7 1007.5 0.0
04/12:00pm 23.8 22.3 16.8 65 4.3 N 20 43 11 23 1007.9 1007.7 0.0
04/11:30am 23.9 22.8 17.4 67 4.0 N 19 33 10 18 1008.4 1008.2 0.0
04/11:00am 25.2 23.3 15.8 56 5.7 N 20 35 11 19 1008.4 1008.2 0.0
04/10:30am 25.2 21.3 15.5 55 5.9 NW 30 44 16 24 1008.8 1008.6 0.0
04/10:00am 25.5 19.8 15.2 53 6.2 NNW 39 63 21 34 1008.2 1008.0 0.0
04/09:55am 25.2 18.6 14.9 52 6.2 NNW 43 63 23 34 1008.1 1007.9 0.0
04/09:30am 26.6 18.2 12.3 41 8.3 NW 48 72 26 39 1006.1 1005.9 0.0
04/09:23am 26.9 19.1 11.0 37 9.0 NW 43 69 23 37 1006.2 1006.0 0.0
04/09:01am 27.4 21.8 10.2 34 9.7 NW 30 50 16 27 1006.7 1006.5 0.0
04/09:00am 27.4 21.8 10.2 34 9.7 NW 30 46 16 25 1006.6 1006.4 0.0
04/08:58am 27.4 22.2 10.2 34 9.7 NW 28 46 15 25 1006.7 1006.5 0.0
04/08:30am 27.9 23.7 9.7 32 10.2 NNW 22 35 12 19 1006.8 1006.6 0.0
04/08:22am 27.4 25.5 10.6 35 9.5 N 11 26 6 14 1006.8 1006.6 0.0
04/08:00am 22.2 20.8 9.7 45 6.8 ENE 7 11 4 6 1006.8 1006.6 0.0
04/07:30am 19.5 18.1 11.0 58 4.7 N 9 11 5 6 1006.4 1006.2 0.0
04/07:00am 16.2 15.4 11.6 74 2.5 N 7 9 4 5 1006.6 1006.4 0.0
04/06:30am 15.5 14.4 10.1 70 2.8 NNE 6 7 3 4 1006.9 1006.7 0.0
04/06:00am 14.8 13.0 9.4 70 2.8 N 9 9 5 5 1007.2 1007.0 0.0
04/05:30am 14.1 13.5 9.1 72 2.6 N 2 7 1 4 1007.3 1007.1 0.0
04/05:00am 14.1 12.6 9.1 72 2.5 N 7 9 4 5 1007.4 1007.2 0.0
04/04:30am 14.4 12.5 9.0 70 2.8 N 9 9 5 5 1007.4 1007.2 0.0
04/04:00am 14.6 11.5 8.8 68 2.9 N 15 17 8 9 1007.6 1007.4 0.0
04/03:30am 14.6 11.4 8.5 67 3.1 NNW 15 19 8 10 1008.1 1007.9 0.0
04/03:00am 13.6 11.2 8.7 72 2.5 NNW 11 13 6 7 1008.6 1008.4 0.0
04/02:30am 13.8 11.4 8.6 71 2.6 NNW 11 13 6 7 1009.3 1009.1 0.0
04/02:00am 13.8 11.2 9.5 75 2.2 NNW 13 17 7 9 1009.8 1009.6 0.0
04/01:30am 13.9 11.5 10.1 78 2.0 NNW 13 17 7 9 1010.3 1010.1 0.0
04/01:00am 13.2 11.0 9.5 78 1.9 WNW 11 13 6 7 1010.2 1010.0 0.0
04/12:30am 13.4 11.7 10.0 80 1.8 NW 9 11 5 6 1011.1 1010.9 0.0
04/12:00am 13.7 12.0 9.9 78 2.0 NNW 9 11 5 6 1011.0 1010.8 0.0
 
Date/Time
CDT
Temp
°C
App
Temp
°C
Dew
Point
°C
Rel
Hum
%
Delta-T
°C
Wind Press
QNH
hPa
Press
MSL
hPa
Rain since
9am
mm
Dir  Spd
km/h
Gust
km/h
Spd
kts
Gust
kts
03/11:30pm 14.6 13.1 10.4 76 2.2 WSW 9 13 5 7 1011.1 1010.9 0.0
03/11:00pm 15.1 14.0 10.5 74 2.4 SW 7 9 4 5 1011.4 1011.2 0.0
03/10:30pm 15.6 14.5 10.6 72 2.7 WSW 7 9 4 5 1011.8 1011.6 0.0
03/10:00pm 15.7 14.6 10.7 72 2.7 SW 7 9 4 5 1012.1 1011.9 0.0
03/09:30pm 15.4 14.4 10.2 71 2.7 SW 6 7 3 4 1012.3 1012.2 0.0
03/09:00pm 16.0 14.8 10.3 69 3.0 SSW 7 11 4 6 1012.0 1011.8 0.0
03/08:30pm 17.0 15.1 10.4 65 3.5 SSW 11 15 6 8 1012.2 1012.0 0.0
03/08:00pm 17.0 14.2 9.9 63 3.7 SSW 15 20 8 11 1012.1 1011.9 0.0
03/07:30pm 17.8 14.0 9.9 60 4.2 SSW 20 26 11 14 1011.8 1011.6 0.0
03/07:00pm 19.8 16.1 10.0 53 5.3 SSW 20 24 11 13 1011.5 1011.3 0.0
03/06:30pm 21.7 18.0 9.6 46 6.5 SSW 19 26 10 14 1011.3 1011.1 0.0
03/06:00pm 22.2 20.1 9.7 45 6.8 SSW 11 17 6 9 1010.8 1010.6 0.0
03/05:30pm 22.4 19.1 9.6 44 6.9 SSW 17 22 9 12 1011.2 1011.0 0.0
03/05:00pm 22.4 17.8 9.6 44 6.9 SSW 24 30 13 16 1011.4 1011.2 0.0
03/04:30pm 23.0 17.7 9.8 43 7.2 SSW 28 37 15 20 1011.5 1011.3 0.0
03/04:00pm 25.8 20.5 10.0 37 8.8 SSW 28 35 15 19 1011.4 1011.2 0.0
03/03:30pm 27.5 24.8 7.4 28 10.8 S 11 19 6 10 1011.4 1011.2 0.0
03/03:00pm 27.3 24.1 6.7 27 10.9 ESE 13 19 7 10 1011.4 1011.2 0.0
03/02:30pm 26.3 22.6 6.4 28 10.4 SE 15 22 8 12 1011.6 1011.4 0.0
03/02:00pm 25.5 22.1 5.7 28 10.2 SE 13 22 7 12 1011.9 1011.7 0.0
03/01:30pm 25.1 20.8 6.8 31 9.6 S 19 24 10 13 1012.3 1012.2 0.0
03/01:00pm 24.6 20.9 6.4 31 9.4 SE 15 24 8 13 1012.7 1012.6 0.0
03/12:30pm 24.0 20.9 5.4 30 9.4 ESE 11 20 6 11 1012.9 1012.8 0.0
03/12:00pm 23.3 19.7 5.2 31 9.1 NE 13 19 7 10 1013.3 1013.2 0.0
03/11:30am 22.2 18.9 6.4 36 8.1 E 13 20 7 11 1013.6 1013.5 0.0
03/11:00am 19.8 15.5 5.1 38 7.2 E 17 22 9 12 1014.2 1014.1 0.0
03/10:30am 19.0 16.0 6.2 43 6.4 ESE 11 22 6 12 1014.4 1014.3 0.0
03/10:00am 17.3 14.6 5.6 46 5.7 NE 9 15 5 8 1014.8 1014.7 0.0
03/09:30am 16.5 13.0 5.5 48 5.3 ENE 13 19 7 10 1015.1 1015.0 0.0
03/09:00am 15.5 12.1 6.0 53 4.6 E 13 17 7 9 1015.6 1015.5 0.0
03/08:30am 14.9 11.5 6.0 55 4.3 ENE 13 19 7 10 1015.6 1015.5 0.0
03/08:00am 14.2 11.4 6.8 61 3.6 NE 11 15 6 8 1015.7 1015.6 0.0
03/07:30am 12.3 9.7 5.9 65 3.0 N 9 11 5 6 1015.6 1015.5 0.0
03/07:00am 10.5 7.5 5.9 73 2.1 NNW 11 13 6 7 1015.5 1015.4 0.0
03/06:30am 8.0 4.8 4.9 81 1.4 NNW 11 13 6 7 1015.5 1015.4 0.0
03/06:00am 6.6 3.3 4.4 86 1.0 NNW 11 15 6 8 1015.1 1015.0 0.0
03/05:30am 6.2 2.7 3.5 83 1.1 NNW 11 13 6 7 1015.1 1015.0 0.0
03/05:00am 6.5 2.8 4.2 85 1.0 NNW 13 15 7 8 1014.8 1014.7 0.0
03/04:30am 7.0 4.1 4.8 86 1.0 N 9 11 5 6 1014.4 1014.3 0.0
03/04:00am 6.8 3.8 4.1 83 1.2 N 9 11 5 6 1014.5 1014.4 0.0
03/03:30am 7.4 4.2 4.9 84 1.1 N 11 13 6 7 1014.4 1014.3 0.0
03/03:00am 7.2 3.9 4.7 84 1.1 NNW 11 11 6 6 1014.3 1014.2 0.0
03/02:30am 7.1 4.5 4.4 83 1.2 NW 7 11 4 6 1014.5 1014.4 0.0
03/02:00am 7.5 4.5 4.3 80 1.4 NW 9 11 5 6 1014.8 1014.7 0.0
03/01:30am 7.9 5.1 5.0 82 1.3 NNW 9 11 5 6 1015.0 1014.9 0.0
03/01:00am 9.0 7.6 5.4 78 1.6 NNW 2 6 1 3 1015.5 1015.4 0.0
03/12:30am 10.1 7.5 6.1 76 1.9 SW 9 11 5 6 1015.6 1015.5 0.0
03/12:00am 10.7 8.1 6.3 74 2.1 SW 9 11 5 6 1015.9 1015.8 0.0
 
Date/Time
CDT
Temp
°C
App
Temp
°C
Dew
Point
°C
Rel
Hum
%
Delta-T
°C
Wind Press
QNH
hPa
Press
MSL
hPa
Rain since
9am
mm
Dir  Spd
km/h
Gust
km/h
Spd
kts
Gust
kts
02/11:30pm 10.9 8.4 6.6 75 2.0 SW 9 11 5 6 1016.1 1016.0 0.0
02/11:00pm 10.8 8.3 6.4 74 2.1 SW 9 11 5 6 1016.2 1016.1 0.0
02/10:30pm 11.4 8.9 6.7 73 2.2 SW 9 13 5 7 1016.3 1016.2 0.0
02/10:00pm 11.5 9.0 6.6 72 2.3 SW 9 11 5 6 1016.2 1016.1 0.0
02/09:30pm 11.2 9.1 6.7 74 2.1 SW 7 11 4 6 1016.2 1016.1 0.0
02/09:00pm 11.5 8.6 6.6 72 2.3 S 11 13 6 7 1016.0 1015.9 0.0
02/08:30pm 12.9 9.4 7.1 68 2.8 S 15 17 8 9 1015.9 1015.8 0.0
02/08:00pm 14.2 10.4 7.5 64 3.3 S 17 22 9 12 1015.7 1015.6 0.0
02/07:30pm 15.4 11.0 7.4 59 4.0 S 20 26 11 14 1015.3 1015.2 0.0
02/07:00pm 16.2 11.5 7.7 57 4.3 S 22 28 12 15 1015.1 1015.0 0.0
02/06:30pm 16.7 11.6 7.6 55 4.6 S 24 33 13 18 1014.8 1014.7 0.0
02/06:00pm 18.0 12.8 7.4 50 5.4 SSW 24 35 13 19 1014.4 1014.3 0.0
02/05:30pm 18.1 12.7 7.8 51 5.2 S 26 33 14 18 1014.3 1014.2 0.0
02/05:00pm 19.2 14.2 8.2 49 5.7 SSW 24 32 13 17 1014.3 1014.2 0.0
02/04:30pm 18.9 14.0 8.3 50 5.5 SSW 24 35 13 19 1014.2 1014.1 0.0
02/04:00pm 19.2 14.2 8.2 49 5.7 SSW 24 39 13 21 1014.2 1014.1 0.0
02/03:30pm 19.6 14.0 8.6 49 5.7 SSW 28 39 15 21 1014.1 1014.0 0.0
02/03:00pm 20.2 16.0 9.7 51 5.6 SSW 22 33 12 18 1014.0 1013.9 0.0

Other Formats:

Comma delimited format used in spreadsheet applications
http://www.bom.gov.au/fwo/IDS60801/IDS60801.94814.axf

JavaScript Object Notation format (JSON) in row-major order
http://www.bom.gov.au/fwo/IDS60801/IDS60801.94814.json